• Join FlightAware (Why Join?)
  • Login
  • US Flag 
06:46AM EDT


 

Airport Tracker/Info


-or-


 

Live Flight TrackerFlight Track Log ✈ N589H ✈ 04-Jul-2014 ✈ KTEB - KPIE

Flight Track Log - Related Links

Times and Time Zones

All times are in EDT time to prevent confusion due to time zone crossing. See the N589H flight status page for this flight to view local times or setup timezone preferences in your user account.

Time Position Orientation Groundspeed Altitude Reporting Facility
EDT Latitude Longitude Course Direction KTS MPH feet Rate Location/Type
04:32AM 40.8167 -74.1333 225° Southwest 202 232 2,100  Level New York TRACON
04:34AM 40.7422 -74.2303 225° Southwest 169 194 32,000 9,240 Climbing New York Center
04:35AM 40.7242 -74.2761 243° Southwest 162 186 32,000 -10,080 Level New York Center
04:36AM 40.6994 -74.3350 241° Southwest 359 413 12,100 -9,000 Descending New York Center
04:37AM 40.6794 -74.3803 240° Southwest 263 303 14,000 2,040 Climbing New York Center
04:38AM 40.6525 -74.4392 239° Southwest 195 224 16,200 1,920 Climbing New York Center
04:39AM 40.6322 -74.4872 241° Southwest 177 204 17,900 1,620 Climbing New York Center
04:40AM 40.5992 -74.5456 233° Southwest 177 204 19,500 1,560 Climbing New York Center
04:41AM 40.5564 -74.5842 214° Southwest 182 209 21,000 1,560 Climbing New York Center
04:42AM 40.5156 -74.6231 216° Southwest 188 216 22,600 1,200 Climbing New York Center
04:43AM 40.4703 -74.6667 216° Southwest 195 224 23,500 720 Climbing New York Center
04:45AM 40.3461 -74.7778 214° Southwest 244 281 25,000 600 Climbing Washington Center
04:46AM 40.2922 -74.8300 216° Southwest 256 295 25,500 480 Climbing Washington Center
04:47AM 40.2344 -74.8850 216° Southwest 256 295 26,000 540 Climbing Washington Center
04:48AM 40.1658 -74.9481 215° Southwest 267 307 26,600 540 Climbing Washington Center
04:49AM 40.1078 -75.0003 215° Southwest 279 321 27,100 480 Climbing Washington Center
04:50AM 40.0394 -75.0631 215° Southwest 285 328 27,600 480 Climbing Washington Center
04:51AM 39.9792 -75.1178 215° Southwest 285 328 28,100 480 Climbing Washington Center
04:52AM 39.9128 -75.1803 216° Southwest 285 328 28,600 480 Climbing Washington Center
04:53AM 39.8464 -75.2428 216° Southwest 290 334 29,100 480 Climbing Washington Center
04:54AM 39.7800 -75.3025 215° Southwest 290 334 29,600 480 Climbing Washington Center
04:55AM 39.7133 -75.3622 215° Southwest 290 334 30,100 480 Climbing Washington Center
04:56AM 39.6489 -75.4192 214° Southwest 285 328 30,600 480 Climbing Washington Center
04:57AM 39.5803 -75.4783 214° Southwest 285 328 31,100 480 Climbing Washington Center
04:58AM 39.5178 -75.5350 215° Southwest 285 328 31,600 360 Climbing Washington Center
04:59AM 39.4531 -75.5942 215° Southwest 285 328 31,900 120 Climbing Washington Center
05:00AM 39.3864 -75.6533 214° Southwest 285 328 31,900  Level Washington Center
05:01AM 39.3197 -75.7122 214° Southwest 285 328 31,900  Level Washington Center
05:02AM 39.2528 -75.7739 216° Southwest 290 334 31,900  Level Washington Center
05:03AM 39.1842 -75.8325 214° Southwest 290 334 31,900  Level Washington Center
05:04AM 39.1172 -75.8939 215° Southwest 295 339 31,900  Level Washington Center
05:05AM 39.0461 -75.9525 213° Southwest 295 339 31,900  Level Washington Center
05:06AM 38.9772 -76.0136 215° Southwest 300 345 31,900  Level Washington Center
05:07AM 38.9081 -76.0744 214° Southwest 310 357 31,900  Level Washington Center
05:08AM 38.8392 -76.1353 215° Southwest 310 357 31,900  Level Washington Center
05:09AM 38.7658 -76.1961 213° Southwest 315 362 31,900  Level Washington Center
05:10AM 38.6947 -76.2592 215° Southwest 315 362 31,900  Level Washington Center
05:11AM 38.6233 -76.3225 215° Southwest 310 357 31,900  Level Washington Center
05:12AM 38.5522 -76.3828 214° Southwest 310 357 31,900  Level Washington Center
05:13AM 38.4831 -76.4458 216° Southwest 310 357 32,000  Climbing Washington Center
05:14AM 38.4075 -76.5083 213° Southwest 310 357 31,900 -60 Descending Washington Center
05:15AM 38.3361 -76.5711 215° Southwest 310 357 31,900  Level Washington Center
05:16AM 38.2647 -76.6311 213° Southwest 310 357 31,900  Level Washington Center
05:17AM 38.1933 -76.6881 212° Southwest 310 357 31,900  Level Washington Center
05:18AM 38.1197 -76.7531 215° Southwest 310 357 31,900  Level Washington Center
05:19AM 38.0461 -76.8153 214° Southwest 310 357 31,900  Level Washington Center
05:20AM 37.9722 -76.8797 215° Southwest 315 362 32,000  Climbing Washington Center
05:21AM 37.8967 -76.9444 214° Southwest 320 368 31,900 -60 Descending Washington Center
05:22AM 37.8228 -77.0061 213° Southwest 320 368 31,900  Level Washington Center
05:23AM 37.7450 -77.0703 213° Southwest 325 374 31,900  Level Washington Center
05:24AM 37.6711 -77.1319 213° Southwest 325 374 31,900  Level Washington Center
05:25AM 37.5889 -77.2036 215° Southwest 331 381 32,000  Climbing Washington Center
05:26AM 37.5150 -77.2675 214° Southwest 331 381 31,900 -60 Descending Washington Center
05:27AM 37.4389 -77.3311 214° Southwest 331 381 31,900  Level Washington Center
05:28AM 37.3608 -77.3947 213° Southwest 331 381 31,900  Level Washington Center
05:29AM 37.2847 -77.4583 214° Southwest 331 381 31,900  Level Washington Center
05:30AM 37.2089 -77.5189 212° Southwest 331 381 31,900  Level Washington Center
05:31AM 37.1406 -77.6006 224° Southwest 336 387 32,000  Climbing Washington Center
05:32AM 37.0850 -77.6772 228° Southwest 336 387 31,900 -60 Descending Washington Center
05:33AM 37.0150 -77.7508 220° Southwest 336 387 31,900  Level Washington Center
05:34AM 36.9386 -77.8136 213° Southwest 336 387 31,900  Level Washington Center
05:35AM 36.8603 -77.8764 213° Southwest 341 392 31,900  Level Washington Center
05:36AM 36.7819 -77.9361 211° Southwest 341 392 31,900  Level Washington Center
05:37AM 36.7078 -77.9989 214° Southwest 335 386 31,900  Level Washington Center
05:38AM 36.6292 -78.0611 212° Southwest 335 386 31,900  Level Washington Center
05:39AM 36.5550 -78.1233 214° Southwest 335 386 31,900  Level Washington Center
05:40AM 36.4783 -78.1881 214° Southwest 335 386 31,900  Level Washington Center
05:41AM 36.4019 -78.2500 213° Southwest 335 386 31,900  Level Washington Center
05:42AM 36.3256 -78.3092 212° Southwest 335 386 31,900  Level Washington Center
05:43AM 36.2469 -78.3708 212° Southwest 335 386 31,900  Level Washington Center
05:44AM 36.1683 -78.4325 212° Southwest 335 386 31,900  Level Washington Center
05:45AM 36.0917 -78.4914 212° Southwest 335 386 31,900  Level Washington Center
05:46AM 36.0153 -78.5528 213° Southwest 335 386 31,900  Level Washington Center
05:47AM 35.9386 -78.6142 213° Southwest 335 386 31,900  Level Washington Center
05:48AM 35.8619 -78.6753 213° Southwest 335 386 31,900  Level Washington Center
05:49AM 35.7853 -78.7336 212° Southwest 335 386 31,900  Level Washington Center
05:50AM 35.7064 -78.7944 212° Southwest 335 386 31,900  Level Washington Center
05:51AM 35.6297 -78.8553 213° Southwest 335 386 31,900  Level Washington Center
05:52AM 35.5508 -78.9158 212° Southwest 335 386 31,900  Level Washington Center
05:53AM 35.4719 -78.9739 211° Southwest 335 386 31,900  Level Washington Center
05:54AM 35.3931 -79.0342 212° Southwest 335 386 31,900  Level Washington Center
05:55AM 35.3161 -79.0944 213° Southwest 329 379 31,900  Level Washington Center
05:56AM 35.2372 -79.1547 212° Southwest 339 390 31,900  Level Washington Center
05:58AM 35.0881 -79.2675 212° Southwest 337 388 31,900  Level Jacksonville Center
05:59AM 35.0083 -79.3267 211° Southwest 337 388 31,900  Level Jacksonville Center
06:00AM 34.9308 -79.3831 211° Southwest 337 388 31,900  Level Jacksonville Center
06:01AM 34.8531 -79.4419 212° Southwest 337 388 31,900  Level Jacksonville Center
06:02AM 34.7733 -79.5008 211° Southwest 337 388 31,900  Level Jacksonville Center
06:03AM 34.6958 -79.5619 213° Southwest 337 388 31,900  Level Jacksonville Center
06:04AM 34.6181 -79.6206 212° Southwest 337 388 31,900  Level Jacksonville Center
06:05AM 34.5381 -79.6764 210° Southwest 337 388 31,900  Level Jacksonville Center
06:06AM 34.4647 -79.7422 217° Southwest 337 388 31,900  Level Jacksonville Center
06:07AM 34.3869 -79.8003 212° Southwest 331 381 31,900  Level Jacksonville Center
06:08AM 34.3069 -79.8583 211° Southwest 331 381 31,900  Level Jacksonville Center
06:09AM 34.2289 -79.9164 212° Southwest 336 387 31,900  Level Jacksonville Center
06:10AM 34.1469 -79.9744 210° Southwest 336 387 31,900  Level Jacksonville Center
06:11AM 34.0692 -80.0347 213° Southwest 336 387 31,900  Level Jacksonville Center
06:12AM 33.9911 -80.0947 213° Southwest 336 387 31,900  Level Jacksonville Center
06:13AM 33.9111 -80.1525 211° Southwest 336 387 31,900  Level Jacksonville Center
06:14AM 33.8308 -80.2125 212° Southwest 336 387 31,900  Level Jacksonville Center
06:15AM 33.7486 -80.2700 210° Southwest 336 387 31,900  Level Jacksonville Center
06:16AM 33.6706 -80.3297 212° Southwest 341 392 31,900  Level Jacksonville Center
06:17AM 33.5925 -80.3892 212° Southwest 341 392 31,900  Level Jacksonville Center
06:18AM 33.5100 -80.4464 210° Southwest 341 392 31,900  Level Jacksonville Center
06:19AM 33.4319 -80.5058 212° Southwest 341 392 31,900  Level Jacksonville Center
06:20AM 33.3494 -80.5653 211° Southwest 341 392 31,900  Level Jacksonville Center
06:21AM 33.2692 -80.6244 212° Southwest 341 392 31,900  Level Jacksonville Center
06:22AM 33.1889 -80.6811 211° Southwest 341 392 31,900  Level Jacksonville Center
06:23AM 33.0981 -80.7453 211° Southwest 341 392 31,900  Level Jacksonville Center
06:24AM 33.0178 -80.8042 212° Southwest 341 392 31,900  Level Jacksonville Center
06:25AM 32.9350 -80.8581 209° Southwest 341 392 31,900  Level Jacksonville Center
06:26AM 32.8436 -80.8872 195° South 341 392 31,900  Level Jacksonville Center
06:27AM 32.7544 -80.9164 195° South 341 392 31,900  Level Jacksonville Center
06:28AM 32.6631 -80.9456 195° South 341 392 31,900  Level Jacksonville Center
06:29AM 32.5694 -80.9747 195° South 340 391 31,900  Level Jacksonville Center
06:30AM 32.4781 -81.0039 195° South 340 391 31,900  Level Jacksonville Center
06:31AM 32.3950 -81.0300 195° South 340 391 31,900  Level Jacksonville Center
06:32AM 32.3056 -81.0589 195° South 335 386 31,900  Level Jacksonville Center
06:33AM 32.1997 -81.0906 194° South 352 405 31,900  Level Jacksonville Center
06:34AM 32.1061 -81.1217 196° South 346 398 31,900  Level Jacksonville Center
06:35AM 32.0147 -81.1481 194° South 346 398 31,900  Level Jacksonville Center
06:36AM 31.9211 -81.1792 196° South 346 398 31,900  Level Jacksonville Center
06:38AM 31.7381 -81.2389 194° South 346 398 31,900  Level Jacksonville Center
06:39AM 31.6489 -81.2672 195° South 346 398 31,900  Level Jacksonville Center
06:40AM 31.5636 -81.2931 194° South 338 389 31,900  Level Jacksonville Center
06:41AM 31.4636 -81.3239 195° South 338 389 31,900  Level Jacksonville Center
06:42AM 31.3806 -81.3497 195° South 338 389 31,900  Level Jacksonville Center
06:43AM 31.2889 -81.3781 195° South 338 389 31,900  Level Jacksonville Center
06:44AM 31.1953 -81.4061 194° South 338 389 31,900  Level Jacksonville Center
06:45AM 31.1058 -81.4344 195° South 338 389 31,900  Level Jacksonville Center
06:46AM 31.0144 -81.4625 195° South 338 389 31,900  Level Jacksonville Center
06:47AM 30.9206 -81.4906 194° South 338 389 31,900  Level Jacksonville Center
06:48AM 30.8292 -81.5183 195° South 338 389 31,900  Level Jacksonville Center
06:49AM 30.7375 -81.5439 193° South 338 389 31,900  Level Jacksonville Center
06:50AM 30.6458 -81.5742 196° South 338 389 31,900  Level Jacksonville Center
06:51AM 30.5522 -81.6019 194° South 338 389 31,900  Level Jacksonville Center
06:52AM 30.4606 -81.6275 194° South 338 389 31,900  Level Jacksonville Center
06:53AM 30.3586 -81.6600 195° South 338 389 31,900  Level Jacksonville Center
06:54AM 30.2650 -81.6853 193° South 338 389 31,900  Level Jacksonville Center
06:55AM 30.1714 -81.7153 195° South 343 395 31,900  Level Jacksonville Center
06:56AM 30.0817 -81.7403 194° South 336 387 31,900  Level Jacksonville Center
06:57AM 29.9881 -81.7728 197° South 341 392 31,900  Level Jacksonville Center
06:58AM 29.8964 -81.8000 194° South 341 392 31,900 -240 Level Jacksonville Center
06:59AM 29.8028 -81.8297 195° South 341 392 31,500 -600 Descending Jacksonville Center
07:00AM 29.7092 -81.8572 194° South 341 392 30,700 -780 Descending Jacksonville Center
07:01AM 29.6092 -81.8869 194° South 359 413 30,000 -1,020 Descending Jacksonville Center
07:02AM 29.5069 -81.9189 195° South 364 419 28,700 -1,500 Descending Jacksonville Center
07:03AM 29.4069 -81.9461 193° South 370 426 27,100 -1,800 Descending Jacksonville Center
07:04AM 29.3092 -81.9781 196° South 375 432 25,100 -1,800 Descending Jacksonville Center
07:05AM 29.2319 -81.9956 191° South 375 432 23,500 -1,860 Descending Jacksonville Center
07:06AM 29.1300 -82.0272 195° South 362 417 21,400 -2,100 Descending Jacksonville Center
07:07AM 29.0406 -82.0542 195° South 350 403 19,400 -2,040 Descending Jacksonville Center
07:08AM 28.9489 -82.0811 194° South 344 396 17,400 -2,400 Descending Jacksonville Center
07:09AM 28.8633 -82.1078 195° South 332 382 14,600 -2,760 Descending Jacksonville Center
07:10AM 28.7842 -82.1297 194° South 314 361 11,900 -1,140 Descending Jacksonville Center
07:12AM 28.6167 -82.2167 205° Southwest 286 329 11,000 -300 Descending Tampa TRACON
07:13AM 28.5667 -82.2833 230° Southwest 292 336 11,000 -300 Level Tampa TRACON
07:14AM 28.5000 -82.3333 213° Southwest 286 329 10,500 -540 Descending Tampa TRACON
07:15AM 28.4500 -82.4000 230° Southwest 282 325 10,000 -540 Descending Tampa TRACON
07:16AM 28.3833 -82.4333 204° Southwest 280 322 9,500 -540 Descending Tampa TRACON
07:17AM 28.3000 -82.4833 208° Southwest 282 325 9,000 -840 Descending Tampa TRACON
07:18AM 28.2333 -82.5333 213° Southwest 285 328 7,900 -1,380 Descending Tampa TRACON
07:19AM 28.1667 -82.5667 204° Southwest 283 326 6,300 -1,920 Descending Tampa TRACON
07:20AM 28.1167 -82.6000 210° Southwest 222 255 4,100 -2,040 Descending Tampa TRACON
07:21AM 28.0500 -82.6333 204° Southwest 180 207 2,300 -1,140 Descending Tampa TRACON
07:22AM 28.0167 -82.6667 221° Southwest 177 204 1,900 -600 Descending Tampa TRACON
07:23AM 27.9833 -82.7000 221° Southwest 150 173 1,200 -720 Descending Tampa TRACON
07:24AM 27.9500 -82.7000 180° South 123 142 500 -720 Descending Tampa TRACON
07:27AM 27.9100 -82.6875 204° Southwest  Level Estimated
07:34AM 27.9100 -82.6875 204° Southwest  Level Estimated